sensor_id;sensor_type;location;lat;lon;timestamp;temperature;humidity
26278;DHT22;14000;52.056;8.510;2023-04-25T00:00:10;6.70;99.90
26278;DHT22;14000;52.056;8.510;2023-04-25T00:02:36;6.70;99.90
26278;DHT22;14000;52.056;8.510;2023-04-25T00:05:02;6.80;99.90
26278;DHT22;14000;52.056;8.510;2023-04-25T00:07:28;6.70;99.90
26278;DHT22;14000;52.056;8.510;2023-04-25T00:09:54;6.70;99.90
26278;DHT22;14000;52.056;8.510;2023-04-25T00:12:19;6.70;99.90
26278;DHT22;14000;52.056;8.510;2023-04-25T00:14:47;6.70;99.90
26278;DHT22;14000;52.056;8.510;2023-04-25T00:17:15;6.70;99.90
26278;DHT22;14000;52.056;8.510;2023-04-25T00:19:42;6.60;99.90
26278;DHT22;14000;52.056;8.510;2023-04-25T00:22:08;6.60;99.90
26278;DHT22;14000;52.056;8.510;2023-04-25T00:24:33;6.60;99.90
26278;DHT22;14000;52.056;8.510;2023-04-25T00:26:59;6.60;99.90
26278;DHT22;14000;52.056;8.510;2023-04-25T00:29:24;6.60;99.90
26278;DHT22;14000;52.056;8.510;2023-04-25T00:31:50;6.60;99.90
26278;DHT22;14000;52.056;8.510;2023-04-25T00:34:15;6.60;99.90
26278;DHT22;14000;52.056;8.510;2023-04-25T00:36:41;6.60;99.90
26278;DHT22;14000;52.056;8.510;2023-04-25T00:39:06;6.60;99.90
26278;DHT22;14000;52.056;8.510;2023-04-25T00:41:32;6.50;99.90
26278;DHT22;14000;52.056;8.510;2023-04-25T00:43:59;6.60;99.90
26278;DHT22;14000;52.056;8.510;2023-04-25T00:46:26;6.60;99.90
26278;DHT22;14000;52.056;8.510;2023-04-25T00:48:51;6.60;99.90
26278;DHT22;14000;52.056;8.510;2023-04-25T00:51:20;6.60;99.90
26278;DHT22;14000;52.056;8.510;2023-04-25T00:53:46;6.60;99.90
26278;DHT22;14000;52.056;8.510;2023-04-25T00:56:13;6.50;99.90
26278;DHT22;14000;52.056;8.510;2023-04-25T00:58:40;6.40;99.90
26278;DHT22;14000;52.056;8.510;2023-04-25T01:01:06;6.40;99.90
26278;DHT22;14000;52.056;8.510;2023-04-25T01:03:34;6.40;99.90
26278;DHT22;14000;52.056;8.510;2023-04-25T01:06:07;6.40;99.90
26278;DHT22;14000;52.056;8.510;2023-04-25T01:08:33;6.30;99.90
26278;DHT22;14000;52.056;8.510;2023-04-25T01:10:59;6.40;99.90
26278;DHT22;14000;52.056;8.510;2023-04-25T01:13:24;6.40;99.90
26278;DHT22;14000;52.056;8.510;2023-04-25T01:15:50;6.40;99.90
26278;DHT22;14000;52.056;8.510;2023-04-25T01:18:16;6.40;99.90
26278;DHT22;14000;52.056;8.510;2023-04-25T01:20:42;6.30;99.90
26278;DHT22;14000;52.056;8.510;2023-04-25T01:23:09;6.30;99.90
26278;DHT22;14000;52.056;8.510;2023-04-25T01:25:35;6.30;99.90
26278;DHT22;14000;52.056;8.510;2023-04-25T01:28:01;6.30;99.90
26278;DHT22;14000;52.056;8.510;2023-04-25T01:30:27;6.30;99.90
26278;DHT22;14000;52.056;8.510;2023-04-25T01:32:55;6.30;99.90
26278;DHT22;14000;52.056;8.510;2023-04-25T01:35:21;6.20;99.90
26278;DHT22;14000;52.056;8.510;2023-04-25T01:37:49;6.20;99.90
26278;DHT22;14000;52.056;8.510;2023-04-25T01:40:15;6.20;99.90
26278;DHT22;14000;52.056;8.510;2023-04-25T01:42:42;6.20;99.90
26278;DHT22;14000;52.056;8.510;2023-04-25T01:45:09;6.10;99.90
26278;DHT22;14000;52.056;8.510;2023-04-25T01:47:35;6.10;99.90
26278;DHT22;14000;52.056;8.510;2023-04-25T01:50:01;6.10;99.90
26278;DHT22;14000;52.056;8.510;2023-04-25T01:52:27;6.10;99.90
26278;DHT22;14000;52.056;8.510;2023-04-25T01:54:53;6.10;99.90
26278;DHT22;14000;52.056;8.510;2023-04-25T01:57:19;6.20;99.90
26278;DHT22;14000;52.056;8.510;2023-04-25T01:59:45;6.20;99.90
26278;DHT22;14000;52.056;8.510;2023-04-25T02:02:11;6.20;99.90
26278;DHT22;14000;52.056;8.510;2023-04-25T02:04:37;6.20;99.90
26278;DHT22;14000;52.056;8.510;2023-04-25T02:07:03;6.20;99.90
26278;DHT22;14000;52.056;8.510;2023-04-25T02:09:29;6.20;99.90
26278;DHT22;14000;52.056;8.510;2023-04-25T02:11:54;6.20;99.90
26278;DHT22;14000;52.056;8.510;2023-04-25T02:14:20;6.20;99.90
26278;DHT22;14000;52.056;8.510;2023-04-25T02:16:47;6.20;99.90
26278;DHT22;14000;52.056;8.510;2023-04-25T02:19:12;6.30;99.90
26278;DHT22;14000;52.056;8.510;2023-04-25T02:21:38;6.30;99.90
26278;DHT22;14000;52.056;8.510;2023-04-25T02:24:04;6.20;99.90
26278;DHT22;14000;52.056;8.510;2023-04-25T02:26:30;6.20;99.90
26278;DHT22;14000;52.056;8.510;2023-04-25T02:28:56;6.20;99.90
26278;DHT22;14000;52.056;8.510;2023-04-25T02:31:22;6.30;99.90
26278;DHT22;14000;52.056;8.510;2023-04-25T02:33:47;6.20;99.90
26278;DHT22;14000;52.056;8.510;2023-04-25T02:36:13;6.20;99.90
26278;DHT22;14000;52.056;8.510;2023-04-25T02:38:39;6.30;99.90
26278;DHT22;14000;52.056;8.510;2023-04-25T02:41:05;6.20;99.90
26278;DHT22;14000;52.056;8.510;2023-04-25T02:43:30;6.20;99.90
26278;DHT22;14000;52.056;8.510;2023-04-25T02:45:56;6.20;99.90
26278;DHT22;14000;52.056;8.510;2023-04-25T02:48:22;6.20;99.90
26278;DHT22;14000;52.056;8.510;2023-04-25T02:50:47;6.20;99.90
26278;DHT22;14000;52.056;8.510;2023-04-25T02:53:13;6.20;99.90
26278;DHT22;14000;52.056;8.510;2023-04-25T02:55:38;6.10;99.90
26278;DHT22;14000;52.056;8.510;2023-04-25T02:58:04;6.10;99.90
26278;DHT22;14000;52.056;8.510;2023-04-25T03:00:30;6.10;99.90
26278;DHT22;14000;52.056;8.510;2023-04-25T03:02:56;6.10;99.90
26278;DHT22;14000;52.056;8.510;2023-04-25T03:05:22;6.10;99.90
26278;DHT22;14000;52.056;8.510;2023-04-25T03:07:47;6.10;99.90
26278;DHT22;14000;52.056;8.510;2023-04-25T03:10:13;6.10;99.90
26278;DHT22;14000;52.056;8.510;2023-04-25T03:12:38;6.10;99.90
26278;DHT22;14000;52.056;8.510;2023-04-25T03:15:04;6.10;99.90
26278;DHT22;14000;52.056;8.510;2023-04-25T03:17:30;6.10;99.90
26278;DHT22;14000;52.056;8.510;2023-04-25T03:19:57;6.00;99.90
26278;DHT22;14000;52.056;8.510;2023-04-25T03:22:23;6.00;99.90
26278;DHT22;14000;52.056;8.510;2023-04-25T03:24:50;5.90;99.90
26278;DHT22;14000;52.056;8.510;2023-04-25T03:27:16;5.90;99.90
26278;DHT22;14000;52.056;8.510;2023-04-25T03:29:41;6.00;99.90
26278;DHT22;14000;52.056;8.510;2023-04-25T03:32:07;5.90;99.90
26278;DHT22;14000;52.056;8.510;2023-04-25T03:34:32;5.90;99.90
26278;DHT22;14000;52.056;8.510;2023-04-25T03:36:58;5.90;99.90
26278;DHT22;14000;52.056;8.510;2023-04-25T03:39:24;5.90;99.90
26278;DHT22;14000;52.056;8.510;2023-04-25T03:41:50;5.90;99.90
26278;DHT22;14000;52.056;8.510;2023-04-25T03:44:15;5.90;99.90
26278;DHT22;14000;52.056;8.510;2023-04-25T03:46:41;5.90;99.90
26278;DHT22;14000;52.056;8.510;2023-04-25T03:49:06;5.90;99.90
26278;DHT22;14000;52.056;8.510;2023-04-25T03:51:32;5.90;99.90
26278;DHT22;14000;52.056;8.510;2023-04-25T03:53:58;5.90;99.90
26278;DHT22;14000;52.056;8.510;2023-04-25T03:56:23;5.90;99.90
26278;DHT22;14000;52.056;8.510;2023-04-25T03:58:49;5.90;99.90
26278;DHT22;14000;52.056;8.510;2023-04-25T04:01:14;5.90;99.90
26278;DHT22;14000;52.056;8.510;2023-04-25T04:03:40;5.80;99.90
26278;DHT22;14000;52.056;8.510;2023-04-25T04:06:06;5.80;99.90
26278;DHT22;14000;52.056;8.510;2023-04-25T04:08:32;5.80;99.90
26278;DHT22;14000;52.056;8.510;2023-04-25T04:10:58;5.80;99.90
26278;DHT22;14000;52.056;8.510;2023-04-25T04:13:26;5.80;99.90
26278;DHT22;14000;52.056;8.510;2023-04-25T04:15:52;5.80;99.90
26278;DHT22;14000;52.056;8.510;2023-04-25T04:18:18;5.80;99.90
26278;DHT22;14000;52.056;8.510;2023-04-25T04:20:44;5.80;99.90
26278;DHT22;14000;52.056;8.510;2023-04-25T04:23:09;5.80;99.90
26278;DHT22;14000;52.056;8.510;2023-04-25T04:25:36;5.70;99.90
26278;DHT22;14000;52.056;8.510;2023-04-25T04:28:02;5.70;99.90
26278;DHT22;14000;52.056;8.510;2023-04-25T04:30:28;5.70;99.90
26278;DHT22;14000;52.056;8.510;2023-04-25T04:32:55;5.70;99.90
26278;DHT22;14000;52.056;8.510;2023-04-25T04:35:21;5.70;99.90
26278;DHT22;14000;52.056;8.510;2023-04-25T04:37:47;5.70;99.90
26278;DHT22;14000;52.056;8.510;2023-04-25T04:40:14;5.70;99.90
26278;DHT22;14000;52.056;8.510;2023-04-25T04:42:41;5.70;99.90
26278;DHT22;14000;52.056;8.510;2023-04-25T04:45:07;5.80;99.90
26278;DHT22;14000;52.056;8.510;2023-04-25T04:47:33;5.80;99.90
26278;DHT22;14000;52.056;8.510;2023-04-25T04:49:59;5.70;99.90
26278;DHT22;14000;52.056;8.510;2023-04-25T04:52:25;5.70;99.90
26278;DHT22;14000;52.056;8.510;2023-04-25T04:54:50;5.80;99.90
26278;DHT22;14000;52.056;8.510;2023-04-25T04:57:16;5.70;99.90
26278;DHT22;14000;52.056;8.510;2023-04-25T04:59:42;5.70;99.90
26278;DHT22;14000;52.056;8.510;2023-04-25T05:02:07;5.70;99.90
26278;DHT22;14000;52.056;8.510;2023-04-25T05:04:33;5.70;99.90
26278;DHT22;14000;52.056;8.510;2023-04-25T05:06:59;5.70;99.90
26278;DHT22;14000;52.056;8.510;2023-04-25T05:09:24;5.80;99.90
26278;DHT22;14000;52.056;8.510;2023-04-25T05:11:51;5.80;99.90
26278;DHT22;14000;52.056;8.510;2023-04-25T05:14:17;5.80;99.90
26278;DHT22;14000;52.056;8.510;2023-04-25T05:16:43;5.80;99.90
26278;DHT22;14000;52.056;8.510;2023-04-25T05:19:08;5.80;99.90
26278;DHT22;14000;52.056;8.510;2023-04-25T05:21:34;5.80;99.90
26278;DHT22;14000;52.056;8.510;2023-04-25T05:24:00;5.80;99.90
26278;DHT22;14000;52.056;8.510;2023-04-25T05:26:26;5.90;99.90
26278;DHT22;14000;52.056;8.510;2023-04-25T05:28:58;5.90;99.90
26278;DHT22;14000;52.056;8.510;2023-04-25T05:31:25;5.90;99.90
26278;DHT22;14000;52.056;8.510;2023-04-25T05:33:51;5.90;99.90
26278;DHT22;14000;52.056;8.510;2023-04-25T05:36:17;5.90;99.90
26278;DHT22;14000;52.056;8.510;2023-04-25T05:38:43;5.90;99.90
26278;DHT22;14000;52.056;8.510;2023-04-25T05:41:09;5.90;99.90
26278;DHT22;14000;52.056;8.510;2023-04-25T05:43:34;5.90;99.90
26278;DHT22;14000;52.056;8.510;2023-04-25T05:46:00;5.90;99.90
26278;DHT22;14000;52.056;8.510;2023-04-25T05:48:26;5.90;99.90
26278;DHT22;14000;52.056;8.510;2023-04-25T05:50:51;5.90;99.90
26278;DHT22;14000;52.056;8.510;2023-04-25T05:53:18;5.90;99.90
26278;DHT22;14000;52.056;8.510;2023-04-25T05:55:43;5.90;99.90
26278;DHT22;14000;52.056;8.510;2023-04-25T05:58:09;5.90;99.90
26278;DHT22;14000;52.056;8.510;2023-04-25T06:00:35;6.00;99.90
26278;DHT22;14000;52.056;8.510;2023-04-25T06:03:00;6.00;99.90
26278;DHT22;14000;52.056;8.510;2023-04-25T06:05:26;6.00;99.90
26278;DHT22;14000;52.056;8.510;2023-04-25T06:07:52;6.00;99.90
26278;DHT22;14000;52.056;8.510;2023-04-25T06:10:17;6.00;99.90
26278;DHT22;14000;52.056;8.510;2023-04-25T06:12:43;6.10;99.90
26278;DHT22;14000;52.056;8.510;2023-04-25T06:15:09;6.10;99.90
26278;DHT22;14000;52.056;8.510;2023-04-25T06:17:35;6.00;99.90
26278;DHT22;14000;52.056;8.510;2023-04-25T06:20:01;6.10;99.90
26278;DHT22;14000;52.056;8.510;2023-04-25T06:22:27;6.20;99.90
26278;DHT22;14000;52.056;8.510;2023-04-25T06:24:53;6.10;99.90
26278;DHT22;14000;52.056;8.510;2023-04-25T06:27:18;6.20;99.90
26278;DHT22;14000;52.056;8.510;2023-04-25T06:29:44;6.20;99.90
26278;DHT22;14000;52.056;8.510;2023-04-25T06:32:09;6.20;99.90
26278;DHT22;14000;52.056;8.510;2023-04-25T06:34:35;6.20;99.90
26278;DHT22;14000;52.056;8.510;2023-04-25T06:37:00;6.20;99.90
26278;DHT22;14000;52.056;8.510;2023-04-25T06:39:26;6.20;99.90
26278;DHT22;14000;52.056;8.510;2023-04-25T06:41:51;6.30;99.90
26278;DHT22;14000;52.056;8.510;2023-04-25T06:44:18;6.30;99.90
26278;DHT22;14000;52.056;8.510;2023-04-25T06:46:44;6.30;99.90
26278;DHT22;14000;52.056;8.510;2023-04-25T06:49:09;6.30;99.90
26278;DHT22;14000;52.056;8.510;2023-04-25T06:51:35;6.30;99.90
26278;DHT22;14000;52.056;8.510;2023-04-25T06:54:00;6.30;99.90
26278;DHT22;14000;52.056;8.510;2023-04-25T06:56:26;6.40;99.90
26278;DHT22;14000;52.056;8.510;2023-04-25T06:58:54;6.40;99.90
26278;DHT22;14000;52.056;8.510;2023-04-25T07:01:20;6.50;99.90
26278;DHT22;14000;52.056;8.510;2023-04-25T07:03:46;6.60;99.90
26278;DHT22;14000;52.056;8.510;2023-04-25T07:06:11;6.70;99.90
26278;DHT22;14000;52.056;8.510;2023-04-25T07:08:37;6.70;99.90
26278;DHT22;14000;52.056;8.510;2023-04-25T07:11:02;6.80;99.90
26278;DHT22;14000;52.056;8.510;2023-04-25T07:13:28;6.80;99.90
26278;DHT22;14000;52.056;8.510;2023-04-25T07:15:53;6.70;99.90
26278;DHT22;14000;52.056;8.510;2023-04-25T07:18:19;6.70;99.90
26278;DHT22;14000;52.056;8.510;2023-04-25T07:20:45;6.80;99.90
26278;DHT22;14000;52.056;8.510;2023-04-25T07:23:10;6.90;99.90
26278;DHT22;14000;52.056;8.510;2023-04-25T07:25:36;6.90;99.90
26278;DHT22;14000;52.056;8.510;2023-04-25T07:28:01;6.90;99.90
26278;DHT22;14000;52.056;8.510;2023-04-25T07:30:28;6.90;99.90
26278;DHT22;14000;52.056;8.510;2023-04-25T07:32:53;7.00;99.90
26278;DHT22;14000;52.056;8.510;2023-04-25T07:35:19;6.90;99.90
26278;DHT22;14000;52.056;8.510;2023-04-25T07:37:44;7.00;99.90
26278;DHT22;14000;52.056;8.510;2023-04-25T07:40:10;7.00;99.90
26278;DHT22;14000;52.056;8.510;2023-04-25T07:42:36;7.00;99.90
26278;DHT22;14000;52.056;8.510;2023-04-25T07:45:02;7.00;99.90
26278;DHT22;14000;52.056;8.510;2023-04-25T07:47:28;7.10;99.90
26278;DHT22;14000;52.056;8.510;2023-04-25T07:49:54;7.20;99.90
26278;DHT22;14000;52.056;8.510;2023-04-25T07:52:19;7.20;99.90
26278;DHT22;14000;52.056;8.510;2023-04-25T07:54:46;7.20;99.90
26278;DHT22;14000;52.056;8.510;2023-04-25T07:57:12;7.30;99.90
26278;DHT22;14000;52.056;8.510;2023-04-25T07:59:39;7.40;99.90
26278;DHT22;14000;52.056;8.510;2023-04-25T08:02:05;7.50;99.90
26278;DHT22;14000;52.056;8.510;2023-04-25T08:04:30;7.50;99.90
26278;DHT22;14000;52.056;8.510;2023-04-25T08:06:56;7.50;99.90
26278;DHT22;14000;52.056;8.510;2023-04-25T08:09:22;7.50;99.90
26278;DHT22;14000;52.056;8.510;2023-04-25T08:11:48;7.60;99.90
26278;DHT22;14000;52.056;8.510;2023-04-25T08:14:14;7.70;99.90
26278;DHT22;14000;52.056;8.510;2023-04-25T08:16:39;7.80;99.90
26278;DHT22;14000;52.056;8.510;2023-04-25T08:19:05;7.80;99.90
26278;DHT22;14000;52.056;8.510;2023-04-25T08:21:31;7.70;99.90
26278;DHT22;14000;52.056;8.510;2023-04-25T08:23:57;7.70;99.90
26278;DHT22;14000;52.056;8.510;2023-04-25T08:26:24;7.70;99.90
26278;DHT22;14000;52.056;8.510;2023-04-25T08:28:49;7.80;99.90
26278;DHT22;14000;52.056;8.510;2023-04-25T08:31:15;7.80;99.90
26278;DHT22;14000;52.056;8.510;2023-04-25T08:33:41;7.90;99.90
26278;DHT22;14000;52.056;8.510;2023-04-25T08:36:07;8.00;99.90
26278;DHT22;14000;52.056;8.510;2023-04-25T08:38:32;8.00;99.90
26278;DHT22;14000;52.056;8.510;2023-04-25T08:40:59;7.80;99.90
26278;DHT22;14000;52.056;8.510;2023-04-25T08:43:26;7.70;99.90
26278;DHT22;14000;52.056;8.510;2023-04-25T08:45:59;7.70;99.90
26278;DHT22;14000;52.056;8.510;2023-04-25T08:48:27;7.80;99.90
26278;DHT22;14000;52.056;8.510;2023-04-25T08:50:55;7.90;99.90
26278;DHT22;14000;52.056;8.510;2023-04-25T08:53:32;8.10;99.90
26278;DHT22;14000;52.056;8.510;2023-04-25T08:56:00;8.20;99.90
26278;DHT22;14000;52.056;8.510;2023-04-25T08:58:27;8.20;99.90
26278;DHT22;14000;52.056;8.510;2023-04-25T09:00:53;8.20;99.90
26278;DHT22;14000;52.056;8.510;2023-04-25T09:03:19;8.10;99.90
26278;DHT22;14000;52.056;8.510;2023-04-25T09:05:45;8.10;99.90
26278;DHT22;14000;52.056;8.510;2023-04-25T09:08:10;8.20;99.90
26278;DHT22;14000;52.056;8.510;2023-04-25T09:10:37;8.30;99.90
26278;DHT22;14000;52.056;8.510;2023-04-25T09:13:06;8.40;99.90
26278;DHT22;14000;52.056;8.510;2023-04-25T09:15:56;8.30;99.90
26278;DHT22;14000;52.056;8.510;2023-04-25T09:18:26;8.30;99.90
26278;DHT22;14000;52.056;8.510;2023-04-25T09:21:09;8.40;99.90
26278;DHT22;14000;52.056;8.510;2023-04-25T09:23:46;8.30;99.90
26278;DHT22;14000;52.056;8.510;2023-04-25T09:26:17;8.30;99.90
26278;DHT22;14000;52.056;8.510;2023-04-25T09:28:43;8.30;99.90
26278;DHT22;14000;52.056;8.510;2023-04-25T09:31:12;8.40;99.90
26278;DHT22;14000;52.056;8.510;2023-04-25T09:33:38;8.50;99.90
26278;DHT22;14000;52.056;8.510;2023-04-25T09:36:04;8.60;99.90
26278;DHT22;14000;52.056;8.510;2023-04-25T09:38:41;8.60;99.90
26278;DHT22;14000;52.056;8.510;2023-04-25T09:41:08;8.50;99.90
26278;DHT22;14000;52.056;8.510;2023-04-25T09:43:34;8.50;99.90
26278;DHT22;14000;52.056;8.510;2023-04-25T09:46:00;8.40;99.90
26278;DHT22;14000;52.056;8.510;2023-04-25T09:48:28;8.20;99.90
26278;DHT22;14000;52.056;8.510;2023-04-25T09:51:08;8.20;99.90
26278;DHT22;14000;52.056;8.510;2023-04-25T09:53:35;8.20;99.90
26278;DHT22;14000;52.056;8.510;2023-04-25T09:56:04;8.10;99.90
26278;DHT22;14000;52.056;8.510;2023-04-25T09:58:32;8.20;99.90
26278;DHT22;14000;52.056;8.510;2023-04-25T10:01:01;8.20;99.90
26278;DHT22;14000;52.056;8.510;2023-04-25T10:03:30;8.10;99.90
26278;DHT22;14000;52.056;8.510;2023-04-25T10:05:59;8.00;99.90
26278;DHT22;14000;52.056;8.510;2023-04-25T10:08:26;8.00;99.90
26278;DHT22;14000;52.056;8.510;2023-04-25T10:10:54;7.90;99.90
26278;DHT22;14000;52.056;8.510;2023-04-25T10:13:20;7.70;99.90
26278;DHT22;14000;52.056;8.510;2023-04-25T10:15:47;7.50;99.90
26278;DHT22;14000;52.056;8.510;2023-04-25T10:18:12;7.40;99.90
26278;DHT22;14000;52.056;8.510;2023-04-25T10:20:38;7.40;99.90
26278;DHT22;14000;52.056;8.510;2023-04-25T10:23:13;7.40;99.90
26278;DHT22;14000;52.056;8.510;2023-04-25T10:25:41;7.40;99.90
26278;DHT22;14000;52.056;8.510;2023-04-25T10:28:07;7.40;99.90
26278;DHT22;14000;52.056;8.510;2023-04-25T10:30:33;7.50;99.90
26278;DHT22;14000;52.056;8.510;2023-04-25T10:32:59;7.60;99.90
26278;DHT22;14000;52.056;8.510;2023-04-25T10:35:28;7.70;99.90
26278;DHT22;14000;52.056;8.510;2023-04-25T10:38:09;7.70;99.90
26278;DHT22;14000;52.056;8.510;2023-04-25T10:40:35;7.80;99.90
26278;DHT22;14000;52.056;8.510;2023-04-25T10:45:59;8.10;99.90
26278;DHT22;14000;52.056;8.510;2023-04-25T10:48:26;8.20;99.90
26278;DHT22;14000;52.056;8.510;2023-04-25T10:51:10;8.40;99.90
26278;DHT22;14000;52.056;8.510;2023-04-25T10:53:36;8.60;99.90
26278;DHT22;14000;52.056;8.510;2023-04-25T10:56:16;8.80;99.90
26278;DHT22;14000;52.056;8.510;2023-04-25T10:58:43;8.80;99.90
26278;DHT22;14000;52.056;8.510;2023-04-25T11:01:09;8.90;99.90
26278;DHT22;14000;52.056;8.510;2023-04-25T11:03:42;8.80;99.90
26278;DHT22;14000;52.056;8.510;2023-04-25T11:06:23;8.70;99.90
26278;DHT22;14000;52.056;8.510;2023-04-25T11:08:51;8.60;99.90
26278;DHT22;14000;52.056;8.510;2023-04-25T11:11:17;8.50;99.90
26278;DHT22;14000;52.056;8.510;2023-04-25T11:13:44;8.30;99.90
26278;DHT22;14000;52.056;8.510;2023-04-25T11:16:13;8.20;99.90
26278;DHT22;14000;52.056;8.510;2023-04-25T11:18:44;7.90;99.90
26278;DHT22;14000;52.056;8.510;2023-04-25T11:21:10;7.70;99.90
26278;DHT22;14000;52.056;8.510;2023-04-25T11:23:36;7.60;99.90
26278;DHT22;14000;52.056;8.510;2023-04-25T11:26:03;7.50;99.90
26278;DHT22;14000;52.056;8.510;2023-04-25T11:28:29;7.60;99.90
26278;DHT22;14000;52.056;8.510;2023-04-25T11:30:54;8.00;99.90
26278;DHT22;14000;52.056;8.510;2023-04-25T11:33:24;8.40;99.90
26278;DHT22;14000;52.056;8.510;2023-04-25T11:35:52;8.40;99.90
26278;DHT22;14000;52.056;8.510;2023-04-25T11:38:18;8.40;99.90
26278;DHT22;14000;52.056;8.510;2023-04-25T11:40:43;8.30;99.90
26278;DHT22;14000;52.056;8.510;2023-04-25T11:43:09;8.20;99.90
26278;DHT22;14000;52.056;8.510;2023-04-25T11:45:37;8.10;99.90
26278;DHT22;14000;52.056;8.510;2023-04-25T11:48:02;7.90;99.90
26278;DHT22;14000;52.056;8.510;2023-04-25T11:50:29;7.70;99.90
26278;DHT22;14000;52.056;8.510;2023-04-25T11:52:56;7.60;99.90
26278;DHT22;14000;52.056;8.510;2023-04-25T11:55:22;7.40;99.90
26278;DHT22;14000;52.056;8.510;2023-04-25T11:57:49;7.30;99.90
26278;DHT22;14000;52.056;8.510;2023-04-25T12:00:17;7.20;99.90
26278;DHT22;14000;52.056;8.510;2023-04-25T12:02:45;7.30;99.90
26278;DHT22;14000;52.056;8.510;2023-04-25T12:05:13;7.40;99.90
26278;DHT22;14000;52.056;8.510;2023-04-25T12:07:38;7.50;99.90
26278;DHT22;14000;52.056;8.510;2023-04-25T12:10:08;7.80;99.90
26278;DHT22;14000;52.056;8.510;2023-04-25T12:12:35;8.10;99.90
26278;DHT22;14000;52.056;8.510;2023-04-25T12:15:14;8.50;99.90
26278;DHT22;14000;52.056;8.510;2023-04-25T12:17:51;8.90;99.90
26278;DHT22;14000;52.056;8.510;2023-04-25T12:20:19;9.20;99.90
26278;DHT22;14000;52.056;8.510;2023-04-25T12:22:47;9.60;99.90
26278;DHT22;14000;52.056;8.510;2023-04-25T12:25:14;9.90;99.90
26278;DHT22;14000;52.056;8.510;2023-04-25T12:28:16;9.80;99.90
26278;DHT22;14000;52.056;8.510;2023-04-25T12:33:30;9.40;99.90
26278;DHT22;14000;52.056;8.510;2023-04-25T12:35:57;9.30;99.90
26278;DHT22;14000;52.056;8.510;2023-04-25T12:38:24;9.10;99.90
26278;DHT22;14000;52.056;8.510;2023-04-25T12:40:50;9.20;99.90
26278;DHT22;14000;52.056;8.510;2023-04-25T12:43:16;9.40;99.90
26278;DHT22;14000;52.056;8.510;2023-04-25T12:45:43;9.80;99.90
26278;DHT22;14000;52.056;8.510;2023-04-25T12:48:09;9.90;99.90
26278;DHT22;14000;52.056;8.510;2023-04-25T12:50:35;10.20;99.90
26278;DHT22;14000;52.056;8.510;2023-04-25T12:53:00;10.30;99.90
26278;DHT22;14000;52.056;8.510;2023-04-25T12:55:26;10.50;99.90
26278;DHT22;14000;52.056;8.510;2023-04-25T12:57:51;10.70;99.90
26278;DHT22;14000;52.056;8.510;2023-04-25T13:00:17;10.80;99.90
26278;DHT22;14000;52.056;8.510;2023-04-25T13:02:45;10.90;99.90
26278;DHT22;14000;52.056;8.510;2023-04-25T13:05:15;10.90;99.90
26278;DHT22;14000;52.056;8.510;2023-04-25T13:07:41;10.60;99.90
26278;DHT22;14000;52.056;8.510;2023-04-25T13:10:08;10.20;99.90
26278;DHT22;14000;52.056;8.510;2023-04-25T13:12:33;9.90;99.90
26278;DHT22;14000;52.056;8.510;2023-04-25T13:14:59;9.60;99.90
26278;DHT22;14000;52.056;8.510;2023-04-25T13:17:24;9.00;99.90
26278;DHT22;14000;52.056;8.510;2023-04-25T13:19:50;8.10;99.90
26278;DHT22;14000;52.056;8.510;2023-04-25T13:22:16;7.30;99.90
26278;DHT22;14000;52.056;8.510;2023-04-25T13:24:46;6.70;99.90
26278;DHT22;14000;52.056;8.510;2023-04-25T13:27:12;6.20;99.90
26278;DHT22;14000;52.056;8.510;2023-04-25T13:29:38;6.00;99.90
26278;DHT22;14000;52.056;8.510;2023-04-25T13:32:06;5.80;99.90
26278;DHT22;14000;52.056;8.510;2023-04-25T13:34:31;5.90;99.90
26278;DHT22;14000;52.056;8.510;2023-04-25T13:36:57;5.90;99.90
26278;DHT22;14000;52.056;8.510;2023-04-25T13:39:23;6.10;99.90
26278;DHT22;14000;52.056;8.510;2023-04-25T13:41:48;6.20;99.90
26278;DHT22;14000;52.056;8.510;2023-04-25T13:44:14;6.50;99.90
26278;DHT22;14000;52.056;8.510;2023-04-25T13:46:39;6.90;99.90
26278;DHT22;14000;52.056;8.510;2023-04-25T13:49:05;7.20;99.90
26278;DHT22;14000;52.056;8.510;2023-04-25T13:51:31;7.50;99.90
26278;DHT22;14000;52.056;8.510;2023-04-25T13:53:57;7.70;99.90
26278;DHT22;14000;52.056;8.510;2023-04-25T13:56:23;8.00;99.90
26278;DHT22;14000;52.056;8.510;2023-04-25T13:58:50;8.10;99.90
26278;DHT22;14000;52.056;8.510;2023-04-25T14:01:17;8.30;99.90
26278;DHT22;14000;52.056;8.510;2023-04-25T14:03:42;8.50;99.90
26278;DHT22;14000;52.056;8.510;2023-04-25T14:06:08;8.70;99.90
26278;DHT22;14000;52.056;8.510;2023-04-25T14:08:34;9.00;99.90
26278;DHT22;14000;52.056;8.510;2023-04-25T14:11:00;9.30;99.90
26278;DHT22;14000;52.056;8.510;2023-04-25T14:13:26;9.50;99.90
26278;DHT22;14000;52.056;8.510;2023-04-25T14:15:51;9.80;99.90
26278;DHT22;14000;52.056;8.510;2023-04-25T14:18:17;9.90;99.90
26278;DHT22;14000;52.056;8.510;2023-04-25T14:20:43;9.90;99.90
26278;DHT22;14000;52.056;8.510;2023-04-25T14:23:09;10.10;99.90
26278;DHT22;14000;52.056;8.510;2023-04-25T14:25:34;10.20;99.90
26278;DHT22;14000;52.056;8.510;2023-04-25T14:28:01;10.30;99.90
26278;DHT22;14000;52.056;8.510;2023-04-25T14:30:27;10.20;99.90
26278;DHT22;14000;52.056;8.510;2023-04-25T14:32:53;10.10;99.90
26278;DHT22;14000;52.056;8.510;2023-04-25T14:35:19;9.80;99.90
26278;DHT22;14000;52.056;8.510;2023-04-25T14:37:45;9.60;99.90
26278;DHT22;14000;52.056;8.510;2023-04-25T14:40:11;9.40;99.90
26278;DHT22;14000;52.056;8.510;2023-04-25T14:42:39;9.70;99.90
26278;DHT22;14000;52.056;8.510;2023-04-25T14:45:06;10.20;99.90
26278;DHT22;14000;52.056;8.510;2023-04-25T14:47:32;10.20;99.90
26278;DHT22;14000;52.056;8.510;2023-04-25T14:49:58;10.10;99.90
26278;DHT22;14000;52.056;8.510;2023-04-25T14:52:24;10.00;99.90
26278;DHT22;14000;52.056;8.510;2023-04-25T14:54:50;10.10;99.90
26278;DHT22;14000;52.056;8.510;2023-04-25T14:57:16;10.10;99.90
26278;DHT22;14000;52.056;8.510;2023-04-25T14:59:42;10.20;99.90
26278;DHT22;14000;52.056;8.510;2023-04-25T15:02:07;10.30;99.90
26278;DHT22;14000;52.056;8.510;2023-04-25T15:04:33;10.60;99.90
26278;DHT22;14000;52.056;8.510;2023-04-25T15:06:58;10.50;99.90
26278;DHT22;14000;52.056;8.510;2023-04-25T15:09:24;10.30;99.90
26278;DHT22;14000;52.056;8.510;2023-04-25T15:11:50;10.00;99.90
26278;DHT22;14000;52.056;8.510;2023-04-25T15:14:17;9.70;99.90
26278;DHT22;14000;52.056;8.510;2023-04-25T15:16:42;9.20;99.90
26278;DHT22;14000;52.056;8.510;2023-04-25T15:19:08;9.00;99.90
26278;DHT22;14000;52.056;8.510;2023-04-25T15:21:34;8.90;99.90
26278;DHT22;14000;52.056;8.510;2023-04-25T15:24:00;8.90;99.90
26278;DHT22;14000;52.056;8.510;2023-04-25T15:26:26;8.80;99.90
26278;DHT22;14000;52.056;8.510;2023-04-25T15:28:52;8.90;99.90
26278;DHT22;14000;52.056;8.510;2023-04-25T15:31:18;8.90;99.90
26278;DHT22;14000;52.056;8.510;2023-04-25T15:33:43;8.80;99.90
26278;DHT22;14000;52.056;8.510;2023-04-25T15:36:09;8.70;99.90
26278;DHT22;14000;52.056;8.510;2023-04-25T15:38:36;8.70;99.90
26278;DHT22;14000;52.056;8.510;2023-04-25T15:41:01;8.90;99.90
26278;DHT22;14000;52.056;8.510;2023-04-25T15:43:28;9.00;99.90
26278;DHT22;14000;52.056;8.510;2023-04-25T15:45:54;9.10;99.90